createdAt,value
2019-04-14T00:00:14.279Z,4.00
2019-04-14T00:01:13.580Z,3.90
2019-04-14T00:02:14.168Z,3.80
2019-04-14T00:03:13.580Z,3.80
2019-04-14T00:04:13.935Z,3.90
2019-04-14T00:05:14.702Z,3.60
2019-04-14T00:06:13.672Z,3.90
2019-04-14T00:07:14.485Z,3.70
2019-04-14T00:08:13.614Z,3.60
2019-04-14T00:09:14.003Z,3.90
2019-04-14T00:10:13.923Z,4.00
2019-04-14T00:11:14.661Z,3.70
2019-04-14T00:12:14.381Z,3.80
2019-04-14T00:13:13.618Z,3.70
2019-04-14T00:14:14.143Z,3.70
2019-04-14T00:15:24.452Z,3.70
2019-04-14T00:16:14.194Z,3.90
2019-04-14T00:17:13.628Z,3.90
2019-04-14T00:18:14.249Z,3.90
2019-04-14T00:19:13.636Z,3.70
2019-04-14T00:20:14.248Z,3.60
2019-04-14T00:21:13.665Z,3.70
2019-04-14T00:22:14.097Z,3.90
2019-04-14T00:23:13.652Z,4.10
2019-04-14T00:24:14.052Z,3.90
2019-04-14T00:25:13.659Z,3.70
2019-04-14T00:26:14.031Z,3.60
2019-04-14T00:27:14.880Z,3.90
2019-04-14T00:28:14.133Z,3.80
2019-04-14T00:29:13.678Z,3.60
2019-04-14T00:30:14.402Z,3.80
2019-04-14T00:31:13.681Z,3.60
2019-04-14T00:32:14.081Z,3.90
2019-04-14T00:33:14.814Z,3.80
2019-04-14T00:34:13.846Z,4.00
2019-04-14T00:35:14.644Z,4.00
2019-04-14T00:36:13.704Z,3.80
2019-04-14T00:37:14.097Z,3.90
2019-04-14T00:38:13.712Z,4.00
2019-04-14T00:39:13.938Z,3.80
2019-04-14T00:40:14.956Z,3.80
2019-04-14T00:41:13.796Z,3.90
2019-04-14T00:42:14.780Z,3.90
2019-04-14T00:43:13.720Z,4.10
2019-04-14T00:44:14.636Z,3.90
2019-04-14T00:45:13.734Z,4.10
2019-04-14T00:46:14.635Z,3.80
2019-04-14T00:47:13.738Z,3.70
2019-04-14T00:48:17.409Z,3.90
2019-04-14T00:49:13.747Z,3.80
2019-04-14T00:50:14.680Z,3.70
2019-04-14T00:51:13.761Z,4.00
2019-04-14T00:52:14.538Z,3.80
2019-04-14T00:53:14.267Z,3.80
2019-04-14T00:54:13.758Z,3.90
2019-04-14T00:55:13.998Z,3.90
2019-04-14T00:56:14.787Z,4.00
2019-04-14T00:57:13.780Z,3.90
2019-04-14T00:58:14.856Z,4.10
2019-04-14T00:59:13.778Z,4.10
2019-04-14T01:00:17.305Z,4.10
2019-04-14T01:01:13.790Z,4.10
2019-04-14T01:02:14.569Z,3.90
2019-04-14T01:03:13.798Z,3.90
2019-04-14T01:04:14.380Z,3.90
2019-04-14T01:05:13.809Z,4.10
2019-04-14T01:06:14.299Z,4.00
2019-04-14T01:07:15.131Z,3.90
2019-04-14T01:08:14.124Z,3.80
2019-04-14T01:09:15.045Z,4.30
2019-04-14T01:10:14.886Z,3.90
2019-04-14T01:11:13.898Z,4.00
2019-04-14T01:12:14.836Z,4.00
2019-04-14T01:13:14.230Z,3.90
2019-04-14T01:14:14.731Z,4.00
2019-04-14T01:15:13.839Z,3.90
2019-04-14T01:16:17.567Z,4.20
2019-04-14T01:17:13.842Z,3.80
2019-04-14T01:18:14.683Z,3.90
2019-04-14T01:19:13.848Z,4.00
2019-04-14T01:20:14.601Z,3.80
2019-04-14T01:21:13.862Z,3.90
2019-04-14T01:22:14.147Z,4.10
2019-04-14T01:23:15.029Z,3.60
2019-04-14T01:24:14.254Z,4.00
2019-04-14T01:25:14.863Z,3.90
2019-04-14T01:26:13.946Z,4.10
2019-04-14T01:27:14.584Z,4.10
2019-04-14T01:28:13.880Z,3.80
2019-04-14T01:29:14.376Z,4.10
2019-04-14T01:30:13.888Z,3.90
2019-04-14T01:31:14.070Z,4.40
2019-04-14T01:32:13.912Z,4.00
2019-04-14T01:33:14.146Z,3.90
2019-04-14T01:34:15.087Z,4.10
2019-04-14T01:35:13.910Z,4.00
2019-04-14T01:36:14.828Z,4.20
2019-04-14T01:37:13.914Z,3.90
2019-04-14T01:38:14.761Z,4.00
2019-04-14T01:39:13.939Z,4.10
2019-04-14T01:40:14.226Z,4.20
2019-04-14T01:41:14.930Z,4.00
2019-04-14T01:42:13.926Z,3.90
2019-04-14T01:43:14.611Z,4.00
2019-04-14T01:44:13.951Z,4.00
2019-04-14T01:45:14.265Z,4.00
2019-04-14T01:46:18.657Z,4.20
2019-04-14T01:47:13.952Z,3.80
2019-04-14T01:48:14.832Z,3.90
2019-04-14T01:49:13.958Z,3.90
2019-04-14T01:50:14.864Z,4.20
2019-04-14T01:51:13.960Z,4.10
2019-04-14T01:52:14.565Z,4.10
2019-04-14T01:53:14.022Z,4.00
2019-04-14T01:54:14.937Z,4.10
2019-04-14T01:55:13.974Z,4.20
2019-04-14T01:56:14.453Z,4.00
2019-04-14T01:57:13.986Z,4.10
2019-04-14T01:58:14.376Z,4.30
2019-04-14T01:59:15.023Z,4.00
2019-04-14T02:00:14.158Z,3.90
2019-04-14T02:01:14.949Z,4.10
2019-04-14T02:02:14.149Z,3.90
2019-04-14T02:03:14.905Z,4.10
2019-04-14T02:04:14.006Z,3.90
2019-04-14T02:05:14.618Z,4.20
2019-04-14T02:06:14.014Z,3.80
2019-04-14T02:07:14.506Z,4.10
2019-04-14T02:08:14.023Z,4.00
2019-04-14T02:09:14.110Z,4.00
2019-04-14T02:10:15.124Z,4.10
2019-04-14T02:11:14.030Z,4.10
2019-04-14T02:12:14.859Z,4.20
2019-04-14T02:13:14.044Z,4.00
2019-04-14T02:14:14.804Z,4.50
2019-04-14T02:15:14.044Z,4.00
2019-04-14T02:16:23.914Z,4.30
2019-04-14T02:17:15.268Z,4.30
2019-04-14T02:18:14.351Z,4.00
2019-04-14T02:19:15.247Z,4.00
2019-04-14T02:20:14.266Z,4.00
2019-04-14T02:21:14.928Z,4.30
2019-04-14T02:22:14.068Z,4.10
2019-04-14T02:23:14.693Z,3.90
2019-04-14T02:24:14.074Z,4.00
2019-04-14T02:25:14.308Z,4.20
2019-04-14T02:26:15.395Z,4.20
2019-04-14T02:27:14.248Z,4.00
2019-04-14T02:28:14.100Z,4.10
2019-04-14T02:29:14.417Z,4.20
2019-04-14T02:30:18.010Z,4.10
2019-04-14T02:31:32.993Z,4.30
2019-04-14T02:32:45.390Z,3.90
2019-04-14T02:33:46.054Z,4.20
2019-04-14T02:34:39.251Z,3.90
2019-04-14T02:35:51.637Z,4.10
2019-04-14T02:36:48.312Z,4.20
2019-04-14T02:37:43.341Z,4.10
2019-04-14T02:39:46.741Z,4.00
2019-04-14T02:40:43.768Z,4.20
2019-04-14T02:41:47.362Z,4.30
2019-04-14T02:45:44.597Z,4.20
2019-04-14T02:46:47.264Z,3.90
2019-04-14T02:47:53.962Z,4.20
2019-04-14T02:49:46.594Z,4.00
2019-04-14T02:50:43.672Z,4.20
2019-04-14T02:52:46.366Z,3.90
2019-04-14T02:53:41.665Z,4.40
2019-04-14T02:54:59.671Z,4.10
2019-04-14T02:55:44.868Z,4.10
2019-04-14T02:57:38.276Z,4.20
2019-04-14T02:58:47.819Z,4.10
2019-04-14T03:01:01.865Z,4.40
2019-04-14T03:02:11.947Z,4.40
2019-04-14T03:02:44.699Z,4.20
2019-04-14T03:03:37.490Z,4.40
2019-04-14T03:04:42.894Z,4.40
2019-04-14T03:05:46.358Z,4.10
2019-04-14T03:06:41.262Z,4.10
2019-04-14T03:08:45.295Z,4.10
2019-04-14T03:09:42.392Z,4.20
2019-04-14T03:10:40.188Z,4.50
2019-04-14T03:11:38.099Z,4.10
2019-04-14T03:12:40.539Z,3.90
2019-04-14T03:14:49.335Z,4.20
2019-04-14T03:15:42.728Z,4.10
2019-04-14T03:16:44.786Z,4.20
2019-04-14T03:17:58.525Z,4.20
2019-04-14T03:18:39.553Z,4.30
2019-04-14T03:19:48.525Z,4.30
2019-04-14T03:20:42.336Z,4.40
2019-04-14T03:23:43.843Z,3.70
2019-04-14T03:24:35.923Z,4.20
2019-04-14T03:25:37.499Z,4.50
2019-04-14T03:26:44.745Z,4.00
2019-04-14T03:27:50.207Z,3.90
2019-04-14T03:28:37.806Z,4.30
2019-04-14T03:29:37.103Z,4.20
2019-04-14T03:31:59.389Z,4.30
2019-04-14T03:34:06.628Z,4.30
2019-04-14T03:36:06.204Z,4.10
2019-04-14T03:38:49.770Z,4.10
2019-04-14T03:39:51.840Z,4.30
2019-04-14T03:41:03.049Z,4.40
2019-04-14T03:41:36.704Z,4.30
2019-04-14T03:42:43.875Z,4.20
2019-04-14T03:43:36.957Z,4.20
2019-04-14T03:44:42.974Z,4.20
2019-04-14T03:46:43.349Z,4.10
2019-04-14T03:47:53.154Z,4.20
2019-04-14T03:48:55.845Z,4.40
2019-04-14T03:49:58.347Z,4.50
2019-04-14T03:50:48.041Z,4.30
2019-04-14T03:51:44.707Z,4.10
2019-04-14T03:53:18.786Z,4.20
2019-04-14T03:53:38.501Z,3.90
2019-04-14T03:54:33.169Z,4.30
2019-04-14T03:55:27.669Z,4.10
2019-04-14T03:56:16.490Z,3.90
2019-04-14T03:57:14.933Z,4.30
2019-04-14T03:58:14.596Z,4.30
2019-04-14T03:59:15.174Z,4.20
2019-04-14T04:00:14.411Z,4.40
2019-04-14T04:01:15.111Z,4.20
2019-04-14T04:02:14.434Z,4.10
2019-04-14T04:03:15.203Z,4.30
2019-04-14T04:04:14.421Z,4.50
2019-04-14T04:05:15.172Z,4.20
2019-04-14T04:06:14.432Z,4.20
2019-04-14T04:07:14.968Z,4.30
2019-04-14T04:08:15.708Z,4.30
2019-04-14T04:09:14.990Z,4.20
2019-04-14T04:10:15.713Z,4.10
2019-04-14T04:11:15.086Z,4.40
2019-04-14T04:12:14.449Z,4.30
2019-04-14T04:13:14.993Z,4.40
2019-04-14T04:14:14.453Z,4.50
2019-04-14T04:15:14.969Z,4.10
2019-04-14T04:16:14.477Z,4.30
2019-04-14T04:17:14.693Z,4.10
2019-04-14T04:18:15.526Z,4.40
2019-04-14T04:19:16.673Z,4.20
2019-04-14T04:20:15.167Z,4.30
2019-04-14T04:21:14.485Z,4.20
2019-04-14T04:22:15.063Z,4.50
2019-04-14T04:23:14.495Z,4.30
2019-04-14T04:24:14.957Z,4.40
2019-04-14T04:25:14.499Z,4.20
2019-04-14T04:26:14.716Z,4.30
2019-04-14T04:27:15.748Z,4.30
2019-04-14T04:28:14.536Z,4.20
2019-04-14T04:29:15.710Z,4.50
2019-04-14T04:30:14.519Z,4.50
2019-04-14T04:31:15.574Z,4.20
2019-04-14T04:32:14.527Z,4.00
2019-04-14T04:33:15.524Z,4.10
2019-04-14T04:34:14.528Z,4.20
2019-04-14T04:35:15.304Z,3.90
2019-04-14T04:36:14.539Z,4.20
2019-04-14T04:37:14.922Z,4.30
2019-04-14T04:38:14.545Z,4.10
2019-04-14T04:39:14.968Z,4.40
2019-04-14T04:40:15.703Z,4.50
2019-04-14T04:41:14.741Z,4.50
2019-04-14T04:42:15.489Z,4.60
2019-04-14T04:43:14.735Z,4.30
2019-04-14T04:44:15.796Z,4.30
2019-04-14T04:45:14.874Z,4.40
2019-04-14T04:46:15.529Z,4.50
2019-04-14T04:47:14.573Z,4.50
2019-04-14T04:48:15.228Z,4.30
2019-04-14T04:49:19.162Z,4.30
2019-04-14T04:50:15.039Z,4.40
2019-04-14T04:51:14.589Z,4.20
2019-04-14T04:52:15.749Z,4.70
2019-04-14T04:53:15.596Z,4.30
2019-04-14T04:54:14.734Z,4.40
2019-04-14T04:55:15.580Z,4.30
2019-04-14T04:56:14.603Z,4.20
2019-04-14T04:57:15.526Z,4.50
2019-04-14T04:58:15.191Z,4.20
2019-04-14T04:59:14.880Z,4.30
2019-04-14T05:00:15.606Z,4.10
2019-04-14T05:01:14.622Z,4.30
2019-04-14T05:02:15.488Z,4.40
2019-04-14T05:03:14.676Z,4.40
2019-04-14T05:04:15.407Z,4.20
2019-04-14T05:05:14.630Z,4.30
2019-04-14T05:06:15.375Z,4.50
2019-04-14T05:07:14.638Z,4.40
2019-04-14T05:08:15.169Z,4.30
2019-04-14T05:09:14.650Z,4.20
2019-04-14T05:10:15.311Z,4.20
2019-04-14T05:11:14.658Z,4.10
2019-04-14T05:12:15.358Z,4.30
2019-04-14T05:13:14.663Z,4.40
2019-04-14T05:14:15.181Z,4.40
2019-04-14T05:15:14.672Z,4.20
2019-04-14T05:16:14.920Z,4.60
2019-04-14T05:17:14.849Z,4.50
2019-04-14T05:18:15.592Z,4.60
2019-04-14T05:19:25.038Z,4.60
2019-04-14T05:20:15.855Z,4.50
2019-04-14T05:21:14.907Z,4.40
2019-04-14T05:22:16.669Z,4.60
2019-04-14T05:23:14.803Z,4.30
2019-04-14T05:24:15.737Z,4.50
2019-04-14T05:25:14.701Z,4.30
2019-04-14T05:26:15.563Z,4.70
2019-04-14T05:27:14.717Z,4.30
2019-04-14T05:28:15.575Z,4.50
2019-04-14T05:29:14.718Z,4.30
2019-04-14T05:30:15.406Z,4.50
2019-04-14T05:31:14.730Z,4.50
2019-04-14T05:32:15.199Z,4.70
2019-04-14T05:33:14.729Z,4.50
2019-04-14T05:34:15.077Z,4.40
2019-04-14T05:35:14.759Z,4.30
2019-04-14T05:36:15.004Z,4.30
2019-04-14T05:37:15.989Z,4.40
2019-04-14T05:38:14.776Z,4.30
2019-04-14T05:39:15.634Z,4.40
2019-04-14T05:40:14.752Z,4.50
2019-04-14T05:41:15.739Z,4.50
2019-04-14T05:42:19.335Z,4.30
2019-04-14T05:43:28.282Z,4.40
2019-04-14T05:44:14.776Z,4.30
2019-04-14T05:45:15.480Z,4.30
2019-04-14T05:46:14.769Z,4.30
2019-04-14T05:47:15.309Z,4.30
2019-04-14T05:48:15.993Z,4.60
2019-04-14T05:49:29.543Z,4.70
2019-04-14T05:50:15.809Z,4.40
2019-04-14T05:51:15.393Z,4.30
2019-04-14T05:52:14.789Z,4.40
2019-04-14T05:53:15.384Z,4.00
2019-04-14T05:54:14.797Z,4.40
2019-04-14T05:55:15.603Z,4.20
2019-04-14T05:56:14.806Z,4.40
2019-04-14T05:57:15.527Z,4.40
2019-04-14T05:58:14.817Z,4.50
2019-04-14T05:59:15.621Z,4.20
2019-04-14T06:00:14.817Z,4.30
2019-04-14T06:01:15.873Z,4.30
2019-04-14T06:02:15.937Z,4.40
2019-04-14T06:03:14.834Z,4.50
2019-04-14T06:04:15.663Z,4.30
2019-04-14T06:05:14.833Z,3.70
2019-04-14T06:06:14.838Z,4.50
2019-04-14T06:07:14.844Z,4.50
2019-04-14T06:08:14.847Z,4.20
2019-04-14T06:09:14.852Z,4.10
2019-04-14T06:10:14.854Z,4.30
2019-04-14T06:11:14.854Z,4.60
2019-04-14T06:12:14.863Z,4.40
2019-04-14T06:13:14.863Z,4.10
2019-04-14T06:14:14.863Z,4.60
2019-04-14T06:15:14.872Z,4.60
2019-04-14T06:16:14.873Z,4.50
2019-04-14T06:17:14.880Z,4.20
2019-04-14T06:18:14.884Z,4.50
2019-04-14T06:19:14.920Z,4.40
2019-04-14T06:20:14.888Z,4.30
2019-04-14T06:21:14.889Z,4.50
2019-04-14T06:22:14.893Z,4.60
2019-04-14T06:23:14.898Z,4.40
2019-04-14T06:24:14.905Z,4.40
2019-04-14T06:25:15.050Z,4.60
2019-04-14T06:26:14.918Z,4.30
2019-04-14T06:27:14.908Z,4.50
2019-04-14T06:28:14.923Z,4.50
2019-04-14T06:29:14.921Z,4.40
2019-04-14T06:30:14.924Z,4.50
2019-04-14T06:31:14.938Z,4.50
2019-04-14T06:32:14.940Z,4.30
2019-04-14T06:33:14.930Z,4.40
2019-04-14T06:34:14.939Z,4.50
2019-04-14T06:35:14.940Z,4.50
2019-04-14T06:36:14.940Z,4.50
2019-04-14T06:37:14.952Z,4.40
2019-04-14T06:38:14.950Z,4.50
2019-04-14T06:39:14.959Z,4.50
2019-04-14T06:40:14.952Z,4.60
2019-04-14T06:41:14.958Z,4.40
2019-04-14T06:42:14.980Z,4.40
2019-04-14T06:43:14.962Z,4.60
2019-04-14T06:44:14.967Z,4.40
2019-04-14T06:45:14.972Z,8.30
2019-04-14T06:46:14.975Z,17.90
2019-04-14T06:47:14.976Z,18.90
2019-04-14T06:48:14.984Z,20.10
2019-04-14T06:49:14.995Z,16.30
2019-04-14T06:50:14.988Z,13.60
2019-04-14T06:51:14.989Z,13.00
2019-04-14T06:52:14.998Z,12.00
2019-04-14T06:53:14.995Z,12.00
2019-04-14T06:54:15.002Z,11.70
2019-04-14T06:55:15.004Z,12.20
2019-04-14T06:56:15.017Z,12.10
2019-04-14T06:57:15.001Z,12.90
2019-04-14T06:58:15.012Z,12.90
2019-04-14T06:59:15.013Z,13.10
2019-04-14T07:00:15.029Z,13.10
2019-04-14T07:01:15.021Z,12.90
2019-04-14T07:02:15.052Z,12.50
2019-04-14T07:03:15.031Z,12.20
2019-04-14T07:04:15.029Z,11.70
2019-04-14T07:05:15.037Z,11.30
2019-04-14T07:06:15.052Z,11.40
2019-04-14T07:07:15.052Z,11.60
2019-04-14T07:08:15.049Z,11.70
2019-04-14T07:09:15.056Z,11.70
2019-04-14T07:10:15.063Z,11.50
2019-04-14T07:11:15.049Z,11.00
2019-04-14T07:12:15.126Z,10.90
2019-04-14T07:13:15.090Z,10.80
2019-04-14T07:14:15.062Z,10.70
2019-04-14T07:15:15.114Z,10.60
2019-04-14T07:16:15.078Z,11.00
2019-04-14T07:17:15.070Z,10.50
2019-04-14T07:18:15.084Z,10.30
2019-04-14T07:19:15.081Z,10.90
2019-04-14T07:20:15.081Z,10.10
2019-04-14T07:21:15.097Z,10.30
2019-04-14T07:22:15.088Z,10.30
2019-04-14T07:23:15.093Z,10.90
2019-04-14T07:24:15.099Z,10.30
2019-04-14T07:25:15.101Z,9.70
2019-04-14T07:26:15.106Z,9.90
2019-04-14T07:27:15.120Z,10.40
2019-04-14T07:28:15.112Z,10.00
2019-04-14T07:29:15.116Z,10.40
2019-04-14T07:30:15.114Z,9.80
2019-04-14T07:31:15.128Z,10.80
2019-04-14T07:32:15.123Z,10.70
2019-04-14T07:33:15.126Z,10.90
2019-04-14T07:34:15.126Z,10.20
2019-04-14T07:35:15.140Z,10.20
2019-04-14T07:36:15.140Z,10.60
2019-04-14T07:37:15.132Z,10.10
2019-04-14T07:38:15.148Z,10.60
2019-04-14T07:39:15.144Z,10.70
2019-04-14T07:40:15.142Z,10.30
2019-04-14T07:41:15.160Z,10.50
2019-04-14T07:42:15.158Z,10.80
2019-04-14T07:43:15.162Z,10.60
2019-04-14T07:44:15.230Z,10.50
2019-04-14T07:45:15.169Z,10.50
2019-04-14T07:46:15.181Z,11.30
2019-04-14T07:47:15.189Z,11.10
2019-04-14T07:48:15.183Z,11.10
2019-04-14T07:49:15.181Z,10.70
2019-04-14T07:50:15.396Z,10.90
2019-04-14T07:51:15.192Z,10.40
2019-04-14T07:52:15.193Z,11.40
2019-04-14T07:53:15.192Z,11.20
2019-04-14T07:54:15.197Z,10.80
2019-04-14T07:55:15.201Z,10.40
2019-04-14T07:56:15.201Z,10.70
2019-04-14T07:57:15.208Z,9.90
2019-04-14T07:58:15.209Z,10.80
2019-04-14T07:59:15.213Z,10.30
2019-04-14T08:00:15.222Z,10.60
2019-04-14T08:01:15.219Z,10.20
2019-04-14T08:02:15.230Z,9.70
2019-04-14T08:03:15.255Z,9.50
2019-04-14T08:04:15.233Z,10.30
2019-04-14T08:05:15.241Z,9.80
2019-04-14T08:06:15.244Z,10.00
2019-04-14T08:07:15.246Z,9.80
2019-04-14T08:08:15.250Z,10.00
2019-04-14T08:09:15.249Z,10.60
2019-04-14T08:10:15.259Z,10.20
2019-04-14T08:11:15.245Z,10.20
2019-04-14T08:12:15.259Z,10.10
2019-04-14T08:13:15.258Z,10.30
2019-04-14T08:14:15.276Z,9.40
2019-04-14T08:15:15.277Z,9.30
2019-04-14T08:16:15.275Z,9.90
2019-04-14T08:17:15.279Z,9.80
2019-04-14T08:18:15.283Z,9.30
2019-04-14T08:19:15.294Z,9.30
2019-04-14T08:20:26.744Z,9.70
2019-04-14T08:21:15.301Z,9.80
2019-04-14T08:22:15.299Z,9.60
2019-04-14T08:23:15.293Z,9.70
2019-04-14T08:24:15.313Z,9.50
2019-04-14T08:25:15.323Z,9.30
2019-04-14T08:26:15.311Z,9.20
2019-04-14T08:27:15.317Z,9.20
2019-04-14T08:28:15.313Z,9.30
2019-04-14T08:29:15.323Z,8.60
2019-04-14T08:30:15.323Z,9.20
2019-04-14T08:31:15.327Z,9.40
2019-04-14T08:32:15.333Z,9.20
2019-04-14T08:33:15.349Z,9.50
2019-04-14T08:34:15.362Z,9.50
2019-04-14T08:35:15.335Z,9.30
2019-04-14T08:36:15.342Z,9.10
2019-04-14T08:37:15.353Z,9.80
2019-04-14T08:38:15.365Z,9.70
2019-04-14T08:39:15.357Z,9.50
2019-04-14T08:40:15.357Z,9.80
2019-04-14T08:41:15.369Z,9.00
2019-04-14T08:42:15.378Z,9.20
2019-04-14T08:43:15.380Z,9.20
2019-04-14T08:44:15.372Z,9.30
2019-04-14T08:45:15.379Z,9.80
2019-04-14T08:46:15.382Z,9.20
2019-04-14T08:47:15.384Z,9.00
2019-04-14T08:48:15.389Z,9.20
2019-04-14T08:49:15.392Z,9.20
2019-04-14T08:50:15.397Z,9.00
2019-04-14T08:51:15.395Z,9.00
2019-04-14T08:52:15.409Z,8.90
2019-04-14T08:53:15.408Z,8.80
2019-04-14T08:54:15.407Z,8.80
2019-04-14T08:55:15.403Z,9.00
2019-04-14T08:56:15.417Z,8.80
2019-04-14T08:57:15.415Z,8.80
2019-04-14T08:58:15.425Z,9.20
2019-04-14T08:59:15.474Z,8.60
2019-04-14T09:00:15.432Z,9.40
2019-04-14T09:01:15.433Z,9.00
2019-04-14T09:02:15.455Z,8.90
2019-04-14T09:03:15.440Z,8.80
2019-04-14T09:04:15.455Z,8.50
2019-04-14T09:05:15.997Z,8.70
2019-04-14T09:06:15.455Z,8.80
2019-04-14T09:07:15.457Z,9.00
2019-04-14T09:08:15.528Z,8.90
2019-04-14T09:09:15.997Z,8.70
2019-04-14T09:10:15.464Z,8.60
2019-04-14T09:11:15.473Z,9.00
2019-04-14T09:12:16.199Z,8.50
2019-04-14T09:13:15.481Z,9.40
2019-04-14T09:14:15.484Z,8.60
2019-04-14T09:15:15.494Z,8.50
2019-04-14T09:16:15.487Z,8.20
2019-04-14T09:17:15.494Z,8.60
2019-04-14T09:18:15.504Z,8.50
2019-04-14T09:19:15.506Z,8.50
2019-04-14T09:20:15.500Z,7.90
2019-04-14T09:21:15.525Z,8.30
2019-04-14T09:22:15.507Z,8.30
2019-04-14T09:23:15.529Z,8.10
2019-04-14T09:24:15.519Z,8.60
2019-04-14T09:25:15.547Z,8.90
2019-04-14T09:26:15.525Z,8.10
2019-04-14T09:27:15.533Z,8.80
2019-04-14T09:28:15.527Z,7.90
2019-04-14T09:29:15.617Z,7.90
2019-04-14T09:30:15.537Z,7.80
2019-04-14T09:31:15.559Z,8.10
2019-04-14T09:32:15.571Z,8.10
2019-04-14T09:33:15.598Z,8.80
2019-04-14T09:34:15.557Z,8.30
2019-04-14T09:35:15.551Z,8.20
2019-04-14T09:36:15.557Z,8.10
2019-04-14T09:37:15.565Z,8.40
2019-04-14T09:38:15.575Z,8.60
2019-04-14T09:39:15.590Z,8.60
2019-04-14T09:40:15.574Z,8.30
2019-04-14T09:41:15.575Z,8.20
2019-04-14T09:42:15.583Z,8.30
2019-04-14T09:43:15.592Z,8.00
2019-04-14T09:44:15.590Z,8.20
2019-04-14T09:45:15.602Z,8.30
2019-04-14T09:46:15.598Z,8.10
2019-04-14T09:47:15.633Z,8.50
2019-04-14T09:48:15.601Z,8.10
2019-04-14T09:49:15.627Z,7.70
2019-04-14T09:50:15.625Z,8.50
2019-04-14T09:51:15.628Z,8.40
2019-04-14T09:52:15.622Z,8.90
2019-04-14T09:53:15.625Z,7.90
2019-04-14T09:54:15.631Z,8.20
2019-04-14T09:55:15.637Z,8.70
2019-04-14T09:56:15.648Z,8.20
2019-04-14T09:57:15.641Z,8.30
2019-04-14T09:58:15.643Z,8.00
2019-04-14T09:59:15.657Z,8.20
2019-04-14T10:00:15.652Z,8.10
2019-04-14T10:01:15.652Z,7.80
2019-04-14T10:02:15.665Z,7.80
2019-04-14T10:03:15.660Z,7.90
2019-04-14T10:04:15.671Z,8.60
2019-04-14T10:05:15.677Z,8.10
2019-04-14T10:06:15.720Z,8.50
2019-04-14T10:07:15.675Z,8.00
2019-04-14T10:08:15.680Z,8.30
2019-04-14T10:09:15.679Z,8.10
2019-04-14T10:10:15.684Z,8.20
2019-04-14T10:11:15.688Z,7.70
2019-04-14T10:12:15.690Z,7.80
2019-04-14T10:13:15.724Z,8.10
2019-04-14T10:14:15.699Z,7.60
2019-04-14T10:15:15.710Z,8.10
2019-04-14T10:16:15.725Z,7.90
2019-04-14T10:17:15.708Z,7.90
2019-04-14T10:18:15.743Z,8.10
2019-04-14T10:19:15.707Z,7.90
2019-04-14T10:20:15.715Z,7.90
2019-04-14T10:21:17.736Z,7.80
2019-04-14T10:22:15.733Z,8.10
2019-04-14T10:23:15.732Z,7.60
2019-04-14T10:24:15.749Z,7.60
2019-04-14T10:25:15.735Z,7.80
2019-04-14T10:26:15.747Z,7.60
2019-04-14T10:27:15.747Z,7.70
2019-04-14T10:28:15.751Z,7.80
2019-04-14T10:29:15.755Z,7.70
2019-04-14T10:30:15.758Z,8.10
2019-04-14T10:31:15.768Z,7.60
2019-04-14T10:32:15.764Z,7.50
2019-04-14T10:33:15.771Z,8.00
2019-04-14T10:34:15.775Z,7.70
2019-04-14T10:35:15.761Z,7.80
2019-04-14T10:36:15.800Z,7.50
2019-04-14T10:37:15.783Z,7.70
2019-04-14T10:38:15.807Z,7.30
2019-04-14T10:39:15.787Z,8.00
2019-04-14T10:40:15.791Z,7.50
2019-04-14T10:41:15.799Z,7.60
2019-04-14T10:42:15.799Z,7.60
2019-04-14T10:43:15.812Z,7.50
2019-04-14T10:44:15.813Z,7.60
2019-04-14T10:45:18.221Z,7.70
2019-04-14T10:46:15.820Z,7.10
2019-04-14T10:47:15.821Z,7.30
2019-04-14T10:48:15.828Z,7.00
2019-04-14T10:49:15.849Z,7.40
2019-04-14T10:50:15.833Z,7.00
2019-04-14T10:51:15.840Z,7.50
2019-04-14T10:52:15.839Z,7.30
2019-04-14T10:53:15.843Z,6.90
2019-04-14T10:54:15.845Z,7.40
2019-04-14T10:55:15.851Z,7.50
2019-04-14T10:56:15.858Z,7.10
2019-04-14T10:57:15.859Z,7.00
2019-04-14T10:58:15.859Z,7.10
2019-04-14T10:59:15.861Z,7.40
2019-04-14T11:00:15.866Z,7.20
2019-04-14T11:01:15.867Z,7.20
2019-04-14T11:02:15.875Z,7.10
2019-04-14T11:03:15.902Z,7.50
2019-04-14T11:04:15.884Z,6.90
2019-04-14T11:05:15.884Z,7.10
2019-04-14T11:06:15.891Z,6.70
2019-04-14T11:07:15.891Z,7.10
2019-04-14T11:08:15.895Z,7.00
2019-04-14T11:09:15.901Z,7.10
2019-04-14T11:10:15.906Z,7.00
2019-04-14T11:11:15.911Z,6.90
2019-04-14T11:12:15.911Z,6.70
2019-04-14T11:13:15.929Z,6.30
2019-04-14T11:14:15.919Z,6.90
2019-04-14T11:15:15.922Z,7.00
2019-04-14T11:16:15.925Z,6.70
2019-04-14T11:17:15.929Z,7.00
2019-04-14T11:18:15.930Z,7.00
2019-04-14T11:19:15.941Z,6.70
2019-04-14T11:20:15.939Z,6.90
2019-04-14T11:21:15.949Z,7.00
2019-04-14T11:22:15.948Z,6.70
2019-04-14T11:23:15.949Z,7.10
2019-04-14T11:24:15.958Z,7.30
2019-04-14T11:25:15.959Z,7.10
2019-04-14T11:26:15.963Z,6.70
2019-04-14T11:27:15.964Z,6.90
2019-04-14T11:28:15.985Z,7.20
2019-04-14T11:29:15.977Z,7.00
2019-04-14T11:30:15.978Z,6.40
2019-04-14T11:31:15.980Z,7.10
2019-04-14T11:32:15.987Z,7.00
2019-04-14T11:33:15.989Z,7.00
2019-04-14T11:34:15.994Z,6.90
2019-04-14T11:35:16.659Z,6.60
2019-04-14T11:36:16.005Z,6.70
2019-04-14T11:37:16.007Z,6.70
2019-04-14T11:38:16.007Z,6.90
2019-04-14T11:39:16.032Z,6.80
2019-04-14T11:40:16.015Z,7.00
2019-04-14T11:41:16.036Z,6.50
2019-04-14T11:42:16.057Z,6.70
2019-04-14T11:43:16.033Z,6.80
2019-04-14T11:44:16.027Z,6.70
2019-04-14T11:45:16.038Z,6.50
2019-04-14T11:46:16.039Z,7.00
2019-04-14T11:47:16.354Z,7.00
2019-04-14T11:48:16.065Z,6.70
2019-04-14T11:49:16.065Z,6.60
2019-04-14T11:50:16.052Z,6.30
2019-04-14T11:51:16.055Z,6.40
2019-04-14T11:52:16.059Z,6.60
2019-04-14T11:53:16.075Z,6.60
2019-04-14T11:54:16.061Z,7.00
2019-04-14T11:55:16.083Z,6.10
2019-04-14T11:56:16.090Z,6.20
2019-04-14T11:57:16.094Z,6.80
2019-04-14T11:58:16.079Z,6.60
2019-04-14T11:59:16.084Z,6.40
2019-04-14T12:00:16.144Z,6.40
2019-04-14T12:01:16.103Z,6.20
2019-04-14T12:02:16.105Z,6.80
2019-04-14T12:03:16.103Z,6.80
2019-04-14T12:04:16.106Z,6.50
2019-04-14T12:05:16.116Z,6.50
2019-04-14T12:06:16.135Z,6.30
2019-04-14T12:07:16.117Z,6.40
2019-04-14T12:08:16.125Z,6.60
2019-04-14T12:09:16.127Z,6.30
2019-04-14T12:10:16.136Z,6.40
2019-04-14T12:11:16.132Z,6.00
2019-04-14T12:12:16.133Z,6.20
2019-04-14T12:13:16.142Z,6.10
2019-04-14T12:14:16.275Z,6.20
2019-04-14T12:15:16.733Z,6.30
2019-04-14T12:16:16.252Z,6.50
2019-04-14T12:17:16.163Z,6.50
2019-04-14T12:18:16.206Z,7.10
2019-04-14T12:19:16.161Z,6.60
2019-04-14T12:20:16.170Z,6.30
2019-04-14T12:21:16.175Z,6.50
2019-04-14T12:22:17.067Z,6.10
2019-04-14T12:23:16.292Z,6.10
2019-04-14T12:24:16.181Z,6.20
2019-04-14T12:25:16.187Z,6.20
2019-04-14T12:26:16.197Z,6.30
2019-04-14T12:27:16.199Z,6.30
2019-04-14T12:28:17.329Z,6.10
2019-04-14T12:29:16.759Z,6.50
2019-04-14T12:30:16.220Z,5.90
2019-04-14T12:31:17.324Z,6.10
2019-04-14T12:32:17.245Z,6.60
2019-04-14T12:33:16.231Z,6.30
2019-04-14T12:34:18.303Z,6.40
2019-04-14T12:35:16.252Z,6.10
2019-04-14T12:36:16.281Z,6.10
2019-04-14T12:37:16.288Z,6.30
2019-04-14T12:38:16.235Z,6.70
2019-04-14T12:39:16.244Z,6.10
2019-04-14T12:40:16.261Z,6.10
2019-04-14T12:41:16.260Z,6.10
2019-04-14T12:42:16.343Z,6.20
2019-04-14T12:43:16.255Z,6.30
2019-04-14T12:44:16.262Z,6.30
2019-04-14T12:45:16.268Z,6.10
2019-04-14T12:46:16.290Z,6.20
2019-04-14T12:47:16.277Z,6.40
2019-04-14T12:48:16.277Z,6.60
2019-04-14T12:49:16.279Z,6.20
2019-04-14T12:50:16.313Z,6.30
2019-04-14T12:51:16.289Z,6.50
2019-04-14T12:52:21.510Z,6.50
2019-04-14T12:53:16.298Z,6.50
2019-04-14T12:54:16.334Z,6.10
2019-04-14T12:55:16.307Z,5.80
2019-04-14T12:56:16.311Z,6.70
2019-04-14T12:57:16.324Z,5.80
2019-04-14T12:58:16.319Z,6.20
2019-04-14T12:59:16.322Z,6.40
2019-04-14T13:00:16.319Z,6.30
2019-04-14T13:01:16.343Z,6.40
2019-04-14T13:02:16.330Z,6.20
2019-04-14T13:03:16.337Z,6.00
2019-04-14T13:04:16.339Z,6.20
2019-04-14T13:05:16.343Z,6.10
2019-04-14T13:06:16.345Z,6.00
2019-04-14T13:07:16.354Z,6.00
2019-04-14T13:08:16.350Z,6.30
2019-04-14T13:09:16.359Z,6.20
2019-04-14T13:10:16.367Z,6.20
2019-04-14T13:11:16.365Z,6.10
2019-04-14T13:12:16.372Z,6.30
2019-04-14T13:13:16.381Z,6.00
2019-04-14T13:14:16.407Z,6.40
2019-04-14T13:15:16.387Z,5.90
2019-04-14T13:16:16.383Z,6.00
2019-04-14T13:17:16.387Z,6.20
2019-04-14T13:18:16.394Z,6.20
2019-04-14T13:19:16.395Z,6.00
2019-04-14T13:20:16.399Z,6.50
2019-04-14T13:21:16.402Z,6.00
2019-04-14T13:22:16.411Z,6.30
2019-04-14T13:23:16.410Z,6.30
2019-04-14T13:24:16.415Z,6.00
2019-04-14T13:25:16.427Z,5.80
2019-04-14T13:26:16.422Z,5.90
2019-04-14T13:27:16.431Z,5.80
2019-04-14T13:28:16.433Z,6.30
2019-04-14T13:29:16.441Z,6.00
2019-04-14T13:30:16.439Z,6.00
2019-04-14T13:31:16.440Z,5.90
2019-04-14T13:32:16.516Z,6.10
2019-04-14T13:33:16.441Z,5.70